Pagina principale
METAR-TAF:

METAR-TAF

Aeroporti :

Aeroporto di Firenze-Peretola

Firenze, Italia

latitudine: 43-48N, longitudine: 011-12E, altezza: 40 m

Osservazione

Il bollettino è stato emesso 35 minuti fa, alle 16:20 UTC
Vento 8 kt da sud/sud-ovest
Temperature 24°C
Umidità 50%
Pressione 1001 hPa
Visibilità 10 km o più
Nubi sparse ad un'altezza di 4500 ft

METAR: LIRQ 051620Z 21008KT 9999 SCT045 24/13 Q1001

Ora: 18:55 (16:55 UTC)

Previsione

Il bollettino è stato emesso 5 ore e 55 minuti fa, alle 11:00 UTC
Previsione valida dal 05 alle 12 UTC al 06 alle 12 UTC
Vento 10 kt da sud-ovest
Visibilità 10 km o più
Nubi sparse ad un'altezza di 3000 ft
Evoluzione graduale
dal 05 alle 18 UTC al 05 alle 20 UTC
Vento 5 kt da direzioni variabili

TAF: LIRQ 051100Z 0512/0612 23010KT 9999 SCT030 BECMG 0518/0520 VRB05KT

Osservazioni e previsioni meteorologiche di più di 4000 aeroporti (messaggi METAR e TAF).

Le stazioni disponibili sono rappresentate dai dischi gialli e rossi sulla carta.

Puntare il mouse per vedere il nome della stazione.

Clicca sopra per visualizzare le osservazioni e previsioni meteorologiche.

Per cambiare la mappa : fare clic sui pulsanti verdi con una croce nera per ingrandire, il pulsante verde con un trattino per diminuire, o sulla freccia verde per le mappe adiacenti.


METAR-TAF: